sensor_id;sensor_type;location;lat;lon;timestamp;temperature;humidity
1976;DHT22;988;48.016;7.800;2022-11-15T00:01:45;12.30;99.90
1976;DHT22;988;48.016;7.800;2022-11-15T00:04:10;12.10;99.90
1976;DHT22;988;48.016;7.800;2022-11-15T00:06:36;12.10;99.90
1976;DHT22;988;48.016;7.800;2022-11-15T00:09:02;12.00;99.90
1976;DHT22;988;48.016;7.800;2022-11-15T00:11:28;12.00;99.90
1976;DHT22;988;48.016;7.800;2022-11-15T00:13:57;12.20;99.90
1976;DHT22;988;48.016;7.800;2022-11-15T00:16:24;12.30;99.90
1976;DHT22;988;48.016;7.800;2022-11-15T00:18:50;12.10;99.90
1976;DHT22;988;48.016;7.800;2022-11-15T00:21:17;12.10;99.90
1976;DHT22;988;48.016;7.800;2022-11-15T00:23:42;12.00;99.90
1976;DHT22;988;48.016;7.800;2022-11-15T00:26:13;12.10;99.90
1976;DHT22;988;48.016;7.800;2022-11-15T00:28:39;12.20;99.90
1976;DHT22;988;48.016;7.800;2022-11-15T00:31:07;12.40;99.90
1976;DHT22;988;48.016;7.800;2022-11-15T00:33:34;12.40;99.90
1976;DHT22;988;48.016;7.800;2022-11-15T00:36:01;12.10;99.90
1976;DHT22;988;48.016;7.800;2022-11-15T00:38:31;12.10;99.90
1976;DHT22;988;48.016;7.800;2022-11-15T00:40:57;12.30;99.90
1976;DHT22;988;48.016;7.800;2022-11-15T00:43:23;12.10;99.90
1976;DHT22;988;48.016;7.800;2022-11-15T00:45:48;12.10;99.90
1976;DHT22;988;48.016;7.800;2022-11-15T00:48:14;12.10;99.90
1976;DHT22;988;48.016;7.800;2022-11-15T00:50:39;12.20;99.90
1976;DHT22;988;48.016;7.800;2022-11-15T00:53:05;12.00;99.90
1976;DHT22;988;48.016;7.800;2022-11-15T00:55:30;11.90;99.90
1976;DHT22;988;48.016;7.800;2022-11-15T00:57:56;11.80;99.90
1976;DHT22;988;48.016;7.800;2022-11-15T01:00:22;11.90;99.90
1976;DHT22;988;48.016;7.800;2022-11-15T01:02:48;11.90;99.90
1976;DHT22;988;48.016;7.800;2022-11-15T01:05:13;12.00;99.90
1976;DHT22;988;48.016;7.800;2022-11-15T01:07:39;12.00;99.90
1976;DHT22;988;48.016;7.800;2022-11-15T01:10:05;12.20;99.90
1976;DHT22;988;48.016;7.800;2022-11-15T01:12:31;12.20;99.90
1976;DHT22;988;48.016;7.800;2022-11-15T01:14:57;12.20;99.90
1976;DHT22;988;48.016;7.800;2022-11-15T01:17:23;12.40;99.90
1976;DHT22;988;48.016;7.800;2022-11-15T01:19:48;12.10;99.90
1976;DHT22;988;48.016;7.800;2022-11-15T01:22:14;12.10;99.90
1976;DHT22;988;48.016;7.800;2022-11-15T01:24:40;12.10;99.90
1976;DHT22;988;48.016;7.800;2022-11-15T01:27:05;12.00;99.90
1976;DHT22;988;48.016;7.800;2022-11-15T01:29:31;12.00;99.90
1976;DHT22;988;48.016;7.800;2022-11-15T01:31:56;12.00;99.90
1976;DHT22;988;48.016;7.800;2022-11-15T01:34:22;12.10;99.90
1976;DHT22;988;48.016;7.800;2022-11-15T01:36:47;12.20;99.90
1976;DHT22;988;48.016;7.800;2022-11-15T01:39:13;12.10;99.90
1976;DHT22;988;48.016;7.800;2022-11-15T01:41:38;12.10;99.90
1976;DHT22;988;48.016;7.800;2022-11-15T01:47:24;12.20;99.90
1976;DHT22;988;48.016;7.800;2022-11-15T01:49:58;12.20;99.90
1976;DHT22;988;48.016;7.800;2022-11-15T01:52:27;12.40;99.90
1976;DHT22;988;48.016;7.800;2022-11-15T01:55:30;12.50;99.90
1976;DHT22;988;48.016;7.800;2022-11-15T01:57:53;12.30;99.90
1976;DHT22;988;48.016;7.800;2022-11-15T02:00:20;12.40;99.90
1976;DHT22;988;48.016;7.800;2022-11-15T02:02:45;12.50;99.90
1976;DHT22;988;48.016;7.800;2022-11-15T02:05:11;12.40;99.90
1976;DHT22;988;48.016;7.800;2022-11-15T02:07:37;12.40;99.90
1976;DHT22;988;48.016;7.800;2022-11-15T02:10:13;12.10;99.90
1976;DHT22;988;48.016;7.800;2022-11-15T02:12:42;12.20;99.90
1976;DHT22;988;48.016;7.800;2022-11-15T02:15:08;12.10;99.90
1976;DHT22;988;48.016;7.800;2022-11-15T02:23:13;12.10;99.90
1976;DHT22;988;48.016;7.800;2022-11-15T02:25:55;12.20;99.90
1976;DHT22;988;48.016;7.800;2022-11-15T02:28:55;12.10;99.90
1976;DHT22;988;48.016;7.800;2022-11-15T02:37:06;11.60;99.90
1976;DHT22;988;48.016;7.800;2022-11-15T02:40:03;11.70;99.90
1976;DHT22;988;48.016;7.800;2022-11-15T02:42:35;11.80;99.90
1976;DHT22;988;48.016;7.800;2022-11-15T02:45:26;11.60;99.90
1976;DHT22;988;48.016;7.800;2022-11-15T02:47:54;11.60;99.90
1976;DHT22;988;48.016;7.800;2022-11-15T02:50:25;11.60;99.90
1976;DHT22;988;48.016;7.800;2022-11-15T02:52:51;11.50;99.90
1976;DHT22;988;48.016;7.800;2022-11-15T02:55:30;11.80;99.90
1976;DHT22;988;48.016;7.800;2022-11-15T03:06:42;11.90;99.90
1976;DHT22;988;48.016;7.800;2022-11-15T03:09:36;11.80;99.90
1976;DHT22;988;48.016;7.800;2022-11-15T03:12:28;11.70;99.90
1976;DHT22;988;48.016;7.800;2022-11-15T03:15:06;11.70;99.90
1976;DHT22;988;48.016;7.800;2022-11-15T03:17:37;11.70;99.90
1976;DHT22;988;48.016;7.800;2022-11-15T03:20:06;11.90;99.90
1976;DHT22;988;48.016;7.800;2022-11-15T03:22:36;11.80;99.90
1976;DHT22;988;48.016;7.800;2022-11-15T03:25:06;11.80;99.90
1976;DHT22;988;48.016;7.800;2022-11-15T03:27:38;11.80;99.90
1976;DHT22;988;48.016;7.800;2022-11-15T03:30:07;11.90;99.90
1976;DHT22;988;48.016;7.800;2022-11-15T03:32:40;11.80;99.90
1976;DHT22;988;48.016;7.800;2022-11-15T03:35:08;11.90;99.90
1976;DHT22;988;48.016;7.800;2022-11-15T03:37:38;11.80;99.90
1976;DHT22;988;48.016;7.800;2022-11-15T03:40:06;11.80;99.90
1976;DHT22;988;48.016;7.800;2022-11-15T03:42:58;11.70;99.90
1976;DHT22;988;48.016;7.800;2022-11-15T03:45:33;11.60;99.90
1976;DHT22;988;48.016;7.800;2022-11-15T03:48:22;11.70;99.90
1976;DHT22;988;48.016;7.800;2022-11-15T03:50:49;11.80;99.90
1976;DHT22;988;48.016;7.800;2022-11-15T03:53:15;11.80;99.90
1976;DHT22;988;48.016;7.800;2022-11-15T03:55:41;12.00;99.90
1976;DHT22;988;48.016;7.800;2022-11-15T03:58:06;11.90;99.90
1976;DHT22;988;48.016;7.800;2022-11-15T04:00:32;11.90;99.90
1976;DHT22;988;48.016;7.800;2022-11-15T04:02:58;12.10;99.90
1976;DHT22;988;48.016;7.800;2022-11-15T04:05:23;11.90;99.90
1976;DHT22;988;48.016;7.800;2022-11-15T04:07:49;11.80;99.90
1976;DHT22;988;48.016;7.800;2022-11-15T04:10:15;11.90;99.90
1976;DHT22;988;48.016;7.800;2022-11-15T04:12:43;12.00;99.90
1976;DHT22;988;48.016;7.800;2022-11-15T04:15:14;12.00;99.90
1976;DHT22;988;48.016;7.800;2022-11-15T04:17:45;11.70;99.90
1976;DHT22;988;48.016;7.800;2022-11-15T04:20:23;11.50;99.90
1976;DHT22;988;48.016;7.800;2022-11-15T04:23:13;11.50;99.90
1976;DHT22;988;48.016;7.800;2022-11-15T04:26:12;11.60;99.90
1976;DHT22;988;48.016;7.800;2022-11-15T04:28:38;11.80;99.90
1976;DHT22;988;48.016;7.800;2022-11-15T04:31:24;11.90;99.90
1976;DHT22;988;48.016;7.800;2022-11-15T04:33:49;11.80;99.90
1976;DHT22;988;48.016;7.800;2022-11-15T04:36:15;11.70;99.90
1976;DHT22;988;48.016;7.800;2022-11-15T04:38:59;11.70;99.90
1976;DHT22;988;48.016;7.800;2022-11-15T04:41:25;11.70;99.90
1976;DHT22;988;48.016;7.800;2022-11-15T04:43:50;11.70;99.90
1976;DHT22;988;48.016;7.800;2022-11-15T04:46:16;11.70;99.90
1976;DHT22;988;48.016;7.800;2022-11-15T04:48:41;11.70;99.90
1976;DHT22;988;48.016;7.800;2022-11-15T04:51:07;11.60;99.90
1976;DHT22;988;48.016;7.800;2022-11-15T04:53:33;11.70;99.90
1976;DHT22;988;48.016;7.800;2022-11-15T04:55:58;11.80;99.90
1976;DHT22;988;48.016;7.800;2022-11-15T04:58:24;11.80;99.90
1976;DHT22;988;48.016;7.800;2022-11-15T05:00:49;11.80;99.90
1976;DHT22;988;48.016;7.800;2022-11-15T05:03:15;11.80;99.90
1976;DHT22;988;48.016;7.800;2022-11-15T05:05:59;11.80;99.90
1976;DHT22;988;48.016;7.800;2022-11-15T05:08:25;11.80;99.90
1976;DHT22;988;48.016;7.800;2022-11-15T05:10:51;11.80;99.90
1976;DHT22;988;48.016;7.800;2022-11-15T05:13:17;11.80;99.90
1976;DHT22;988;48.016;7.800;2022-11-15T05:15:42;11.90;99.90
1976;DHT22;988;48.016;7.800;2022-11-15T05:18:08;12.00;99.90
1976;DHT22;988;48.016;7.800;2022-11-15T05:20:33;12.00;99.90
1976;DHT22;988;48.016;7.800;2022-11-15T05:22:59;12.10;99.90
1976;DHT22;988;48.016;7.800;2022-11-15T05:25:24;12.10;99.90
1976;DHT22;988;48.016;7.800;2022-11-15T05:27:50;12.20;99.90
1976;DHT22;988;48.016;7.800;2022-11-15T05:30:16;12.10;99.90
1976;DHT22;988;48.016;7.800;2022-11-15T05:32:43;12.10;99.90
1976;DHT22;988;48.016;7.800;2022-11-15T05:35:12;12.00;99.90
1976;DHT22;988;48.016;7.800;2022-11-15T05:37:39;12.10;99.90
1976;DHT22;988;48.016;7.800;2022-11-15T05:40:05;12.10;99.90
1976;DHT22;988;48.016;7.800;2022-11-15T05:42:31;12.00;99.90
1976;DHT22;988;48.016;7.800;2022-11-15T05:44:57;11.90;99.90
1976;DHT22;988;48.016;7.800;2022-11-15T05:47:25;11.90;99.90
1976;DHT22;988;48.016;7.800;2022-11-15T05:49:53;11.90;99.90
1976;DHT22;988;48.016;7.800;2022-11-15T05:52:23;11.90;99.90
1976;DHT22;988;48.016;7.800;2022-11-15T05:54:50;12.00;99.90
1976;DHT22;988;48.016;7.800;2022-11-15T05:57:16;12.00;99.90
1976;DHT22;988;48.016;7.800;2022-11-15T05:59:42;11.90;99.90
1976;DHT22;988;48.016;7.800;2022-11-15T06:02:09;11.90;99.90
1976;DHT22;988;48.016;7.800;2022-11-15T06:04:35;11.90;99.90
1976;DHT22;988;48.016;7.800;2022-11-15T06:07:00;11.90;99.90
1976;DHT22;988;48.016;7.800;2022-11-15T06:09:26;12.00;99.90
1976;DHT22;988;48.016;7.800;2022-11-15T06:11:52;11.90;99.90
1976;DHT22;988;48.016;7.800;2022-11-15T06:14:17;12.00;99.90
1976;DHT22;988;48.016;7.800;2022-11-15T06:16:43;12.00;99.90
1976;DHT22;988;48.016;7.800;2022-11-15T06:19:09;12.00;99.90
1976;DHT22;988;48.016;7.800;2022-11-15T06:21:35;12.10;99.90
1976;DHT22;988;48.016;7.800;2022-11-15T06:24:00;12.20;99.90
1976;DHT22;988;48.016;7.800;2022-11-15T06:26:26;12.00;99.90
1976;DHT22;988;48.016;7.800;2022-11-15T06:28:52;12.10;99.90
1976;DHT22;988;48.016;7.800;2022-11-15T06:31:17;12.10;99.90
1976;DHT22;988;48.016;7.800;2022-11-15T06:33:43;12.00;99.90
1976;DHT22;988;48.016;7.800;2022-11-15T06:36:11;12.20;99.90
1976;DHT22;988;48.016;7.800;2022-11-15T06:38:41;12.20;99.90
1976;DHT22;988;48.016;7.800;2022-11-15T06:41:09;12.10;99.90
1976;DHT22;988;48.016;7.800;2022-11-15T06:43:35;12.10;99.90
1976;DHT22;988;48.016;7.800;2022-11-15T06:46:02;12.10;99.90
1976;DHT22;988;48.016;7.800;2022-11-15T06:48:28;12.40;99.90
1976;DHT22;988;48.016;7.800;2022-11-15T06:50:55;12.30;99.90
1976;DHT22;988;48.016;7.800;2022-11-15T06:53:21;12.40;99.90
1976;DHT22;988;48.016;7.800;2022-11-15T06:55:47;12.40;99.90
1976;DHT22;988;48.016;7.800;2022-11-15T06:58:13;12.30;99.90
1976;DHT22;988;48.016;7.800;2022-11-15T07:00:39;12.20;99.90
1976;DHT22;988;48.016;7.800;2022-11-15T07:03:05;12.00;99.90
1976;DHT22;988;48.016;7.800;2022-11-15T07:05:31;12.40;99.90
1976;DHT22;988;48.016;7.800;2022-11-15T07:07:58;12.40;99.90
1976;DHT22;988;48.016;7.800;2022-11-15T07:10:24;12.50;99.90
1976;DHT22;988;48.016;7.800;2022-11-15T07:12:54;12.50;99.90
1976;DHT22;988;48.016;7.800;2022-11-15T07:15:21;12.40;99.90
1976;DHT22;988;48.016;7.800;2022-11-15T07:17:47;12.40;99.90
1976;DHT22;988;48.016;7.800;2022-11-15T07:20:13;12.30;99.90
1976;DHT22;988;48.016;7.800;2022-11-15T07:22:42;12.30;99.90
1976;DHT22;988;48.016;7.800;2022-11-15T07:25:08;12.50;99.90
1976;DHT22;988;48.016;7.800;2022-11-15T07:27:34;12.60;99.90
1976;DHT22;988;48.016;7.800;2022-11-15T07:30:00;12.60;99.90
1976;DHT22;988;48.016;7.800;2022-11-15T07:32:26;12.50;99.90
1976;DHT22;988;48.016;7.800;2022-11-15T07:34:52;12.60;99.90
1976;DHT22;988;48.016;7.800;2022-11-15T07:37:18;12.70;99.90
1976;DHT22;988;48.016;7.800;2022-11-15T07:39:44;12.70;99.90
1976;DHT22;988;48.016;7.800;2022-11-15T07:42:09;12.90;99.90
1976;DHT22;988;48.016;7.800;2022-11-15T07:44:53;12.80;99.90
1976;DHT22;988;48.016;7.800;2022-11-15T07:47:19;12.70;99.90
1976;DHT22;988;48.016;7.800;2022-11-15T07:49:44;12.80;99.90
1976;DHT22;988;48.016;7.800;2022-11-15T07:52:11;12.80;99.90
1976;DHT22;988;48.016;7.800;2022-11-15T07:54:37;12.80;99.90
1976;DHT22;988;48.016;7.800;2022-11-15T07:57:03;12.90;99.90
1976;DHT22;988;48.016;7.800;2022-11-15T07:59:28;13.00;99.90
1976;DHT22;988;48.016;7.800;2022-11-15T08:01:54;13.00;99.90
1976;DHT22;988;48.016;7.800;2022-11-15T08:04:19;13.40;99.90
1976;DHT22;988;48.016;7.800;2022-11-15T08:06:45;13.60;99.90
1976;DHT22;988;48.016;7.800;2022-11-15T08:09:11;14.20;99.90
1976;DHT22;988;48.016;7.800;2022-11-15T08:11:36;14.10;99.90
1976;DHT22;988;48.016;7.800;2022-11-15T08:14:02;14.40;99.90
1976;DHT22;988;48.016;7.800;2022-11-15T08:16:28;14.60;99.90
1976;DHT22;988;48.016;7.800;2022-11-15T08:18:53;14.70;99.90
1976;DHT22;988;48.016;7.800;2022-11-15T08:21:20;14.60;99.90
1976;DHT22;988;48.016;7.800;2022-11-15T08:23:46;14.60;99.90
1976;DHT22;988;48.016;7.800;2022-11-15T08:26:12;14.50;99.90
1976;DHT22;988;48.016;7.800;2022-11-15T08:28:38;14.50;99.90
1976;DHT22;988;48.016;7.800;2022-11-15T08:31:04;14.20;99.90
1976;DHT22;988;48.016;7.800;2022-11-15T08:33:31;14.30;99.90
1976;DHT22;988;48.016;7.800;2022-11-15T08:35:58;14.30;99.90
1976;DHT22;988;48.016;7.800;2022-11-15T08:38:24;14.40;99.90
1976;DHT22;988;48.016;7.800;2022-11-15T08:40:53;14.60;99.90
1976;DHT22;988;48.016;7.800;2022-11-15T08:43:24;14.60;99.90
1976;DHT22;988;48.016;7.800;2022-11-15T08:45:50;14.70;99.90
1976;DHT22;988;48.016;7.800;2022-11-15T08:48:15;14.60;99.90
1976;DHT22;988;48.016;7.800;2022-11-15T08:50:41;14.60;99.90
1976;DHT22;988;48.016;7.800;2022-11-15T08:53:09;14.50;99.90
1976;DHT22;988;48.016;7.800;2022-11-15T08:55:39;14.20;99.90
1976;DHT22;988;48.016;7.800;2022-11-15T08:58:05;14.20;99.90
1976;DHT22;988;48.016;7.800;2022-11-15T09:00:30;14.30;99.90
1976;DHT22;988;48.016;7.800;2022-11-15T09:02:56;14.20;99.90
1976;DHT22;988;48.016;7.800;2022-11-15T09:05:21;14.30;99.90
1976;DHT22;988;48.016;7.800;2022-11-15T09:07:47;14.40;99.90
1976;DHT22;988;48.016;7.800;2022-11-15T09:10:12;14.40;99.90
1976;DHT22;988;48.016;7.800;2022-11-15T09:12:38;14.40;99.90
1976;DHT22;988;48.016;7.800;2022-11-15T09:15:05;14.30;99.90
1976;DHT22;988;48.016;7.800;2022-11-15T09:17:31;14.30;99.90
1976;DHT22;988;48.016;7.800;2022-11-15T09:19:56;14.70;99.90
1976;DHT22;988;48.016;7.800;2022-11-15T09:22:22;14.50;99.90
1976;DHT22;988;48.016;7.800;2022-11-15T09:24:47;14.50;99.90
1976;DHT22;988;48.016;7.800;2022-11-15T09:27:13;14.70;99.90
1976;DHT22;988;48.016;7.800;2022-11-15T09:29:38;14.70;99.90
1976;DHT22;988;48.016;7.800;2022-11-15T09:32:04;14.50;99.90
1976;DHT22;988;48.016;7.800;2022-11-15T09:34:30;14.40;99.90
1976;DHT22;988;48.016;7.800;2022-11-15T09:36:56;14.40;99.90
1976;DHT22;988;48.016;7.800;2022-11-15T09:39:22;14.50;99.90
1976;DHT22;988;48.016;7.800;2022-11-15T09:49:57;15.10;99.90
1976;DHT22;988;48.016;7.800;2022-11-15T09:52:24;15.30;99.90
1976;DHT22;988;48.016;7.800;2022-11-15T09:54:51;15.40;99.90
1976;DHT22;988;48.016;7.800;2022-11-15T10:00:25;15.70;99.90
1976;DHT22;988;48.016;7.800;2022-11-15T10:05:39;15.60;99.90
1976;DHT22;988;48.016;7.800;2022-11-15T10:08:24;15.80;99.90
1976;DHT22;988;48.016;7.800;2022-11-15T10:11:04;16.30;99.90
1976;DHT22;988;48.016;7.800;2022-11-15T10:13:34;16.90;99.90
1976;DHT22;988;48.016;7.800;2022-11-15T10:16:17;16.70;99.90
1976;DHT22;988;48.016;7.800;2022-11-15T10:21:39;17.10;99.90
1976;DHT22;988;48.016;7.800;2022-11-15T10:24:13;16.60;99.90
1976;DHT22;988;48.016;7.800;2022-11-15T10:26:47;16.60;99.90
1976;DHT22;988;48.016;7.800;2022-11-15T10:29:18;16.30;99.90
1976;DHT22;988;48.016;7.800;2022-11-15T10:31:44;16.10;99.90
1976;DHT22;988;48.016;7.800;2022-11-15T10:34:20;16.20;99.90
1976;DHT22;988;48.016;7.800;2022-11-15T10:36:46;16.20;99.90
1976;DHT22;988;48.016;7.800;2022-11-15T10:39:18;16.00;99.90
1976;DHT22;988;48.016;7.800;2022-11-15T10:41:44;16.20;99.90
1976;DHT22;988;48.016;7.800;2022-11-15T10:44:17;16.30;99.90
1976;DHT22;988;48.016;7.800;2022-11-15T10:47:04;16.20;99.90
1976;DHT22;988;48.016;7.800;2022-11-15T10:49:32;16.10;99.90
1976;DHT22;988;48.016;7.800;2022-11-15T10:52:17;16.10;99.90
1976;DHT22;988;48.016;7.800;2022-11-15T10:55:38;16.20;99.90
1976;DHT22;988;48.016;7.800;2022-11-15T10:57:52;16.20;99.90
1976;DHT22;988;48.016;7.800;2022-11-15T11:02:58;15.90;99.90
1976;DHT22;988;48.016;7.800;2022-11-15T11:05:40;15.90;99.90
1976;DHT22;988;48.016;7.800;2022-11-15T11:11:01;15.80;99.90
1976;DHT22;988;48.016;7.800;2022-11-15T11:13:32;16.10;99.90
1976;DHT22;988;48.016;7.800;2022-11-15T11:18:55;16.10;99.90
1976;DHT22;988;48.016;7.800;2022-11-15T11:35:05;16.00;99.90
1976;DHT22;988;48.016;7.800;2022-11-15T11:44:04;16.50;99.90
1976;DHT22;988;48.016;7.800;2022-11-15T11:49:34;16.20;99.90
1976;DHT22;988;48.016;7.800;2022-11-15T11:52:10;16.50;99.90
1976;DHT22;988;48.016;7.800;2022-11-15T11:55:00;16.70;99.90
1976;DHT22;988;48.016;7.800;2022-11-15T11:57:33;16.50;99.90
1976;DHT22;988;48.016;7.800;2022-11-15T12:00:09;16.70;99.90
1976;DHT22;988;48.016;7.800;2022-11-15T12:02:41;16.90;99.90
1976;DHT22;988;48.016;7.800;2022-11-15T12:05:30;16.90;99.90
1976;DHT22;988;48.016;7.800;2022-11-15T12:13:36;16.40;99.90
1976;DHT22;988;48.016;7.800;2022-11-15T12:18:38;16.10;99.90
1976;DHT22;988;48.016;7.800;2022-11-15T12:21:14;16.20;99.90
1976;DHT22;988;48.016;7.800;2022-11-15T12:23:50;16.00;99.90
1976;DHT22;988;48.016;7.800;2022-11-15T12:26:21;16.30;99.90
1976;DHT22;988;48.016;7.800;2022-11-15T12:29:11;16.30;99.90
1976;DHT22;988;48.016;7.800;2022-11-15T12:31:43;15.80;99.90
1976;DHT22;988;48.016;7.800;2022-11-15T12:36:43;16.20;99.90
1976;DHT22;988;48.016;7.800;2022-11-15T12:39:11;16.20;99.90
1976;DHT22;988;48.016;7.800;2022-11-15T12:44:03;16.10;99.90
1976;DHT22;988;48.016;7.800;2022-11-15T12:59:51;15.30;99.90
1976;DHT22;988;48.016;7.800;2022-11-15T13:04:52;15.30;99.90
1976;DHT22;988;48.016;7.800;2022-11-15T13:17:39;15.20;99.90
1976;DHT22;988;48.016;7.800;2022-11-15T13:22:41;15.40;99.90
1976;DHT22;988;48.016;7.800;2022-11-15T13:30:53;15.20;99.90
1976;DHT22;988;48.016;7.800;2022-11-15T13:33:22;15.10;99.90
1976;DHT22;988;48.016;7.800;2022-11-15T13:36:00;15.00;99.90
1976;DHT22;988;48.016;7.800;2022-11-15T13:38:29;15.00;99.90
1976;DHT22;988;48.016;7.800;2022-11-15T13:40:56;15.00;99.90
1976;DHT22;988;48.016;7.800;2022-11-15T13:46:20;14.80;99.90
1976;DHT22;988;48.016;7.800;2022-11-15T13:49:01;14.80;99.90
1976;DHT22;988;48.016;7.800;2022-11-15T13:51:42;14.80;99.90
1976;DHT22;988;48.016;7.800;2022-11-15T13:54:25;14.90;99.90
1976;DHT22;988;48.016;7.800;2022-11-15T13:57:16;14.90;99.90
1976;DHT22;988;48.016;7.800;2022-11-15T13:59:51;14.80;99.90
1976;DHT22;988;48.016;7.800;2022-11-15T14:02:19;15.00;99.90
1976;DHT22;988;48.016;7.800;2022-11-15T14:04:51;15.00;99.90
1976;DHT22;988;48.016;7.800;2022-11-15T14:07:20;15.20;99.90
1976;DHT22;988;48.016;7.800;2022-11-15T14:09:46;15.10;99.90
1976;DHT22;988;48.016;7.800;2022-11-15T14:12:32;15.00;99.90
1976;DHT22;988;48.016;7.800;2022-11-15T14:15:00;15.10;99.90
1976;DHT22;988;48.016;7.800;2022-11-15T14:19:56;15.20;99.90
1976;DHT22;988;48.016;7.800;2022-11-15T14:22:23;15.40;99.90
1976;DHT22;988;48.016;7.800;2022-11-15T14:27:35;15.50;99.90
1976;DHT22;988;48.016;7.800;2022-11-15T14:30:01;15.40;99.90
1976;DHT22;988;48.016;7.800;2022-11-15T14:32:45;15.40;99.90
1976;DHT22;988;48.016;7.800;2022-11-15T14:35:18;15.40;99.90
1976;DHT22;988;48.016;7.800;2022-11-15T14:37:44;15.30;99.90
1976;DHT22;988;48.016;7.800;2022-11-15T14:40:14;15.40;99.90
1976;DHT22;988;48.016;7.800;2022-11-15T14:42:40;15.40;99.90
1976;DHT22;988;48.016;7.800;2022-11-15T14:45:14;15.30;99.90
1976;DHT22;988;48.016;7.800;2022-11-15T14:47:40;15.30;99.90
1976;DHT22;988;48.016;7.800;2022-11-15T14:50:10;14.90;99.90
1976;DHT22;988;48.016;7.800;2022-11-15T14:52:35;15.00;99.90
1976;DHT22;988;48.016;7.800;2022-11-15T14:55:03;15.10;99.90
1976;DHT22;988;48.016;7.800;2022-11-15T14:57:30;14.90;99.90
1976;DHT22;988;48.016;7.800;2022-11-15T14:59:56;15.00;99.90
1976;DHT22;988;48.016;7.800;2022-11-15T15:02:26;14.90;99.90
1976;DHT22;988;48.016;7.800;2022-11-15T15:04:53;14.80;99.90
1976;DHT22;988;48.016;7.800;2022-11-15T15:07:19;14.80;99.90
1976;DHT22;988;48.016;7.800;2022-11-15T15:09:45;14.70;99.90
1976;DHT22;988;48.016;7.800;2022-11-15T15:12:22;14.90;99.90
1976;DHT22;988;48.016;7.800;2022-11-15T15:14:49;14.80;99.90
1976;DHT22;988;48.016;7.800;2022-11-15T15:17:16;14.80;99.90
1976;DHT22;988;48.016;7.800;2022-11-15T15:19:41;14.60;99.90
1976;DHT22;988;48.016;7.800;2022-11-15T15:22:14;14.50;99.90
1976;DHT22;988;48.016;7.800;2022-11-15T15:24:41;14.50;99.90
1976;DHT22;988;48.016;7.800;2022-11-15T15:27:06;14.50;99.90
1976;DHT22;988;48.016;7.800;2022-11-15T15:29:32;14.40;99.90
1976;DHT22;988;48.016;7.800;2022-11-15T15:31:57;14.20;99.90
1976;DHT22;988;48.016;7.800;2022-11-15T15:34:23;14.20;99.90
1976;DHT22;988;48.016;7.800;2022-11-15T15:36:48;14.40;99.90
1976;DHT22;988;48.016;7.800;2022-11-15T15:39:14;14.30;99.90
1976;DHT22;988;48.016;7.800;2022-11-15T15:41:40;14.10;99.90
1976;DHT22;988;48.016;7.800;2022-11-15T15:44:06;14.30;99.90
1976;DHT22;988;48.016;7.800;2022-11-15T15:46:31;14.30;99.90
1976;DHT22;988;48.016;7.800;2022-11-15T15:48:58;14.30;99.90
1976;DHT22;988;48.016;7.800;2022-11-15T15:51:24;13.90;99.90
1976;DHT22;988;48.016;7.800;2022-11-15T15:53:50;14.20;99.90
1976;DHT22;988;48.016;7.800;2022-11-15T15:56:16;14.20;99.90
1976;DHT22;988;48.016;7.800;2022-11-15T15:58:42;14.10;99.90
1976;DHT22;988;48.016;7.800;2022-11-15T16:01:08;14.10;99.90
1976;DHT22;988;48.016;7.800;2022-11-15T16:03:33;14.20;99.90
1976;DHT22;988;48.016;7.800;2022-11-15T16:05:59;14.00;99.90
1976;DHT22;988;48.016;7.800;2022-11-15T16:08:25;14.00;99.90
1976;DHT22;988;48.016;7.800;2022-11-15T16:10:52;13.60;99.90
1976;DHT22;988;48.016;7.800;2022-11-15T16:13:19;13.60;99.90
1976;DHT22;988;48.016;7.800;2022-11-15T16:15:47;13.70;99.90
1976;DHT22;988;48.016;7.800;2022-11-15T16:18:16;13.60;99.90
1976;DHT22;988;48.016;7.800;2022-11-15T16:20:44;13.60;99.90
1976;DHT22;988;48.016;7.800;2022-11-15T16:23:15;13.60;99.90
1976;DHT22;988;48.016;7.800;2022-11-15T16:25:48;13.70;99.90
1976;DHT22;988;48.016;7.800;2022-11-15T16:28:20;13.90;99.90
1976;DHT22;988;48.016;7.800;2022-11-15T16:30:46;13.80;99.90
1976;DHT22;988;48.016;7.800;2022-11-15T16:33:12;13.60;99.90
1976;DHT22;988;48.016;7.800;2022-11-15T16:35:37;13.70;99.90
1976;DHT22;988;48.016;7.800;2022-11-15T16:38:03;13.70;99.90
1976;DHT22;988;48.016;7.800;2022-11-15T16:40:31;13.50;99.90
1976;DHT22;988;48.016;7.800;2022-11-15T16:42:57;13.70;99.90
1976;DHT22;988;48.016;7.800;2022-11-15T16:45:24;13.70;99.90
1976;DHT22;988;48.016;7.800;2022-11-15T16:47:51;13.60;99.90
1976;DHT22;988;48.016;7.800;2022-11-15T16:50:24;13.60;99.90
1976;DHT22;988;48.016;7.800;2022-11-15T16:52:52;13.60;99.90
1976;DHT22;988;48.016;7.800;2022-11-15T16:55:18;13.40;99.90
1976;DHT22;988;48.016;7.800;2022-11-15T16:57:43;13.40;99.90
1976;DHT22;988;48.016;7.800;2022-11-15T17:00:13;13.30;99.90
1976;DHT22;988;48.016;7.800;2022-11-15T17:02:42;13.20;99.90
1976;DHT22;988;48.016;7.800;2022-11-15T17:05:08;13.20;99.90
1976;DHT22;988;48.016;7.800;2022-11-15T17:07:34;13.50;99.90
1976;DHT22;988;48.016;7.800;2022-11-15T17:09:59;13.50;99.90
1976;DHT22;988;48.016;7.800;2022-11-15T17:12:25;13.40;99.90
1976;DHT22;988;48.016;7.800;2022-11-15T17:14:50;13.50;99.90
1976;DHT22;988;48.016;7.800;2022-11-15T17:17:16;13.20;99.90
1976;DHT22;988;48.016;7.800;2022-11-15T17:19:41;13.10;99.90
1976;DHT22;988;48.016;7.800;2022-11-15T17:22:07;13.20;99.90
1976;DHT22;988;48.016;7.800;2022-11-15T17:24:32;13.30;99.90
1976;DHT22;988;48.016;7.800;2022-11-15T17:26:58;13.60;99.90
1976;DHT22;988;48.016;7.800;2022-11-15T17:29:24;13.40;99.90
1976;DHT22;988;48.016;7.800;2022-11-15T17:31:49;13.40;99.90
1976;DHT22;988;48.016;7.800;2022-11-15T17:34:15;13.50;99.90
1976;DHT22;988;48.016;7.800;2022-11-15T17:36:40;13.40;99.90
1976;DHT22;988;48.016;7.800;2022-11-15T17:39:06;13.50;99.90
1976;DHT22;988;48.016;7.800;2022-11-15T17:41:31;13.20;99.90
1976;DHT22;988;48.016;7.800;2022-11-15T17:43:58;13.40;99.90
1976;DHT22;988;48.016;7.800;2022-11-15T17:46:25;13.20;99.90
1976;DHT22;988;48.016;7.800;2022-11-15T17:48:51;13.10;99.90
1976;DHT22;988;48.016;7.800;2022-11-15T17:51:17;13.20;99.90
1976;DHT22;988;48.016;7.800;2022-11-15T17:53:45;13.30;99.90
1976;DHT22;988;48.016;7.800;2022-11-15T17:56:17;13.20;99.90
1976;DHT22;988;48.016;7.800;2022-11-15T17:58:51;13.30;99.90
1976;DHT22;988;48.016;7.800;2022-11-15T18:01:22;13.50;99.90
1976;DHT22;988;48.016;7.800;2022-11-15T18:03:49;13.40;99.90
1976;DHT22;988;48.016;7.800;2022-11-15T18:06:16;13.40;99.90
1976;DHT22;988;48.016;7.800;2022-11-15T18:08:43;13.30;99.90
1976;DHT22;988;48.016;7.800;2022-11-15T18:11:11;13.20;99.90
1976;DHT22;988;48.016;7.800;2022-11-15T18:13:39;13.10;99.90
1976;DHT22;988;48.016;7.800;2022-11-15T18:16:09;13.10;99.90
1976;DHT22;988;48.016;7.800;2022-11-15T18:18:35;13.00;99.90
1976;DHT22;988;48.016;7.800;2022-11-15T18:21:01;13.30;99.90
1976;DHT22;988;48.016;7.800;2022-11-15T18:23:28;13.30;99.90
1976;DHT22;988;48.016;7.800;2022-11-15T18:25:54;13.40;99.90
1976;DHT22;988;48.016;7.800;2022-11-15T18:28:20;13.30;99.90
1976;DHT22;988;48.016;7.800;2022-11-15T18:30:46;13.10;99.90
1976;DHT22;988;48.016;7.800;2022-11-15T18:33:12;13.10;99.90
1976;DHT22;988;48.016;7.800;2022-11-15T18:35:38;13.10;99.90